Latest Weather Observations for Croker Island Airport

IDD60801

Issued at 12:01 pm CST Sunday 26 April 2015 (issued every 30 minutes, with the page automatically refreshed every 10 minutes)

About weather observations | Map of weather stations | Latest weather observations for NT | Other Formats
Station Details ID: 014308 Name: CROKER ISLAND AIRPORT Lat: -11.16 Lon: 132.48 Height: 9.2 m
Data from the previous 72 hours. | See also: Recent months for locations in Northern Territory
Date/Time
CST
Temp
°C
App
Temp
°C
Dew
Point
Rel
Hum
%
Delta-T
°C
Wind Press
QNH
hPa
Press
MSL
hPa
Rain
since 9 am
mm
Dir
 
Spd
km/h
Gust
km/h
Spd
kts
Gust
kts
26/10:30am 29.4 29.7 20.3 58 6.0 ESE 19 30 10 16 1013.0 1012.9 0.0
26/10:00am 29.1 29.2 20.0 58 6.0 ESE 19 32 10 17 1013.0 1012.9 0.0
26/09:30am 28.8 29.9 20.5 61 5.5 SE 15 20 8 11 1012.5 1012.4 0.0
26/09:00am 28.1 29.6 20.6 63 5.0 ESE 13 19 7 10 1012.2 1012.1 0.0
26/08:30am 26.9 29.5 21.9 74 3.3 SE 11 19 6 10 1011.9 1011.8 0.0
26/08:00am 25.5 28.5 22.0 81 2.3 SE 9 11 5 6 1011.7 1011.6 0.0
26/07:30am 23.9 27.2 21.8 88 1.4 ESE 7 11 4 6 1011.6 1011.5 0.0
26/07:00am 22.9 26.0 21.4 91 1.0 ESE 7 13 4 7 1011.5 1011.4 0.0
26/06:30am 22.3 25.2 21.1 93 0.8 ESE 7 9 4 5 1011.3 1011.2 0.0
26/06:00am 22.1 25.0 20.7 92 0.9 ESE 6 9 3 5 1011.2 1011.1 0.0
26/05:30am 22.2 25.0 20.8 92 0.9 ESE 7 9 4 5 1010.9 1010.8 0.0
26/05:00am 21.9 24.3 20.0 89 1.2 ESE 7 7 4 4 1010.9 1010.8 0.0
26/04:30am 22.8 25.2 20.1 85 1.7 ESE 7 9 4 5 1011.1 1011.0 0.0
26/04:00am 23.0 25.4 20.1 84 1.9 ESE 7 9 4 5 1011.1 1011.0 0.0
26/03:30am 22.8 25.1 19.8 83 1.9 ESE 7 9 4 5 1011.0 1010.9 0.0
26/03:00am 24.0 26.3 19.9 78 2.6 SE 7 9 4 5 1011.1 1011.0 0.0
26/02:30am 24.5 27.1 20.4 78 2.7 SE 7 11 4 6 1011.2 1011.1 0.0
26/02:00am 25.0 27.7 21.3 80 2.4 SE 9 13 5 7 1011.4 1011.3 0.0
26/01:30am 23.8 26.8 21.3 86 1.6 ESE 7 9 4 5 1011.7 1011.6 0.0
26/01:00am 23.4 26.3 21.1 87 1.5 SE 7 9 4 5 1011.7 1011.6 0.0
26/12:30am 22.6 25.5 21.1 91 1.0 ESE 7 7 4 4 1011.6 1011.5 0.0
26/12:00am 22.5 25.6 21.1 92 0.9 ESE 6 6 3 3 1011.8 1011.7 0.0
 
Date/Time
CST
Temp
°C
App
Temp
°C
Dew
Point
Rel
Hum
%
Delta-T
°C
Wind Press
QNH
hPa
Press
MSL
hPa
Rain
since 9 am
mm
Dir
 
Spd
km/h
Gust
km/h
Spd
kts
Gust
kts
25/11:30pm 22.2 25.2 20.8 92 0.9 ESE 6 6 3 3 1011.6 1011.5 0.0
25/11:00pm 22.3 25.4 21.1 93 0.8 ESE 6 6 3 3 1011.7 1011.6 0.0
25/10:30pm 22.2 25.1 20.7 91 1.0 ESE 6 6 3 3 1011.7 1011.6 0.0
25/10:00pm 22.4 25.7 20.7 90 1.1 E 4 6 2 3 1011.8 1011.7 0.0
25/09:30pm 22.8 25.5 20.3 86 1.6 E 6 6 3 3 1011.6 1011.5 0.0
25/09:00pm 23.0 25.4 19.6 81 2.2 E 6 7 3 4 1011.3 1011.2 0.0
25/08:30pm 23.4 26.4 20.0 81 2.2 E 4 6 2 3 1011.2 1011.1 0.0
25/08:00pm 23.9 26.2 19.4 76 2.9 S 6 6 3 3 1010.9 1010.8 0.0
25/07:30pm 25.4 27.0 19.1 68 4.0 ENE 9 13 5 7 1010.2 1010.1 0.0
25/07:00pm 25.5 27.5 19.2 68 4.0 ENE 7 11 4 6 1009.7 1009.6 0.0
25/06:30pm 26.5 28.6 19.4 65 4.6 ENE 7 11 4 6 1009.4 1009.3 0.0
25/06:00pm 28.3 29.8 19.8 60 5.6 ENE 11 15 6 8 1009.3 1009.2 0.0
25/05:30pm 29.4 30.6 20.0 57 6.2 ENE 13 20 7 11 1009.0 1008.9 0.0
25/05:00pm 29.9 30.2 18.7 51 7.2 ENE 15 20 8 11 1008.8 1008.7 0.0
25/04:30pm 30.3 30.7 19.0 50 7.3 ENE 15 22 8 12 1008.9 1008.8 0.0
25/04:00pm 30.7 30.9 19.4 51 7.4 ENE 17 24 9 13 1008.8 1008.7 0.0
25/03:30pm 31.0 31.4 19.0 48 7.8 E 15 22 8 12 1008.8 1008.7 0.0
25/03:00pm 31.6 32.4 19.9 50 7.7 ENE 15 24 8 13 1008.8 1008.7 0.0
25/02:30pm 31.6 32.9 20.8 52 7.2 ENE 15 20 8 11 1009.0 1008.9 0.0
25/02:00pm 32.2 34.0 21.1 52 7.5 E 13 19 7 10 1009.3 1009.2 0.0
25/01:30pm 32.2 34.9 21.4 53 7.3 E 9 19 5 10 1009.8 1009.7 0.0
25/01:00pm 32.0 34.3 22.1 55 6.7 ENE 13 22 7 12 1010.1 1010.0 0.0
25/12:30pm 31.6 33.9 22.0 56 6.5 ENE 13 20 7 11 1010.4 1010.3 0.0
25/12:00pm 31.8 34.5 22.2 56 6.5 E 11 17 6 9 1010.8 1010.7 0.0
25/11:30am 30.9 33.6 22.2 59 5.9 E 11 17 6 9 1011.1 1011.0 0.0
25/11:00am 30.9 33.9 23.3 64 5.2 E 13 20 7 11 1011.3 1011.2 0.0
25/10:30am 30.3 33.8 23.5 67 4.7 E 11 17 6 9 1011.3 1011.2 0.0
25/10:00am 30.4 33.5 23.6 67 4.7 ENE 13 19 7 10 1011.3 1011.2 0.0
25/09:30am 30.1 33.6 23.5 67 4.6 ENE 11 19 6 10 1011.0 1010.9 0.0
25/09:00am 29.3 32.8 23.5 71 4.0 E 11 20 6 11 1010.9 1010.8 0.0
25/08:30am 28.2 32.7 23.6 76 3.2 E 6 7 3 4 1010.9 1010.8 0.0
25/08:00am 26.6 31.1 23.7 84 2.0 ESE 6 9 3 5 1010.5 1010.4 0.0
25/07:30am 25.2 29.7 23.6 91 1.1 SE 6 7 3 4 1010.5 1010.4 0.0
25/07:00am 24.9 29.2 23.7 93 0.8 SE 7 9 4 5 1010.2 1010.1 0.0
25/06:30am 23.9 28.1 23.2 96 0.5 ESE 6 9 3 5 1010.0 1009.9 0.0
25/06:00am 23.7 27.8 22.9 95 0.5 E 6 7 3 4 1009.8 1009.7 0.0
25/05:30am 24.1 28.3 23.1 94 0.7 ESE 6 6 3 3 1009.6 1009.5 0.0
25/05:00am 24.3 28.6 23.3 94 0.7 ESE 6 7 3 4 1009.6 1009.5 0.0
25/04:30am 24.5 28.7 23.5 94 0.7 E 7 9 4 5 1009.7 1009.6 0.0
25/04:00am 24.0 28.5 23.0 94 0.7 E 4 6 2 3 1009.8 1009.7 0.0
25/03:30am 24.0 28.5 23.0 94 0.7 ENE 4 6 2 3 1009.9 1009.8 0.0
25/03:00am 23.9 28.1 22.5 92 0.9 ENE 4 6 2 3 1009.8 1009.7 0.0
25/02:30am 23.9 28.0 22.3 91 1.1 NE 4 6 2 3 1009.9 1009.8 0.0
25/02:00am 23.7 27.6 22.5 93 0.8 NE 6 6 3 3 1010.0 1009.9 0.0
25/01:30am 23.7 27.9 22.5 93 0.8 NE 4 6 2 3 1010.2 1010.1 0.0
25/01:00am 24.1 28.4 22.7 92 0.9 ENE 4 6 2 3 1010.3 1010.2 0.0
25/12:30am 23.9 27.6 22.2 90 1.1 E 6 6 3 3 1010.4 1010.3 0.0
25/12:00am 23.3 27.1 21.6 90 1.1 E 4 6 2 3 1010.7 1010.6 0.0
 
Date/Time
CST
Temp
°C
App
Temp
°C
Dew
Point
Rel
Hum
%
Delta-T
°C
Wind Press
QNH
hPa
Press
MSL
hPa
Rain
since 9 am
mm
Dir
 
Spd
km/h
Gust
km/h
Spd
kts
Gust
kts
24/11:30pm 23.5 26.8 21.4 88 1.4 E 6 6 3 3 1010.8 1010.7 0.0
24/11:00pm 23.6 27.4 21.7 89 1.3 E 4 6 2 3 1010.8 1010.7 0.0
24/10:30pm 23.7 27.7 22.1 91 1.1 E 4 4 2 2 1010.9 1010.8 0.0
24/10:00pm 24.0 28.0 22.1 89 1.3 E 4 4 2 2 1011.1 1011.0 0.0
24/09:30pm 24.4 28.2 21.7 85 1.8 E 4 6 2 3 1010.9 1010.8 0.0
24/09:00pm 24.9 28.6 22.2 85 1.8 ENE 6 6 3 3 1010.6 1010.5 0.0
24/08:30pm 25.3 29.4 22.2 83 2.1 ENE 4 6 2 3 1010.5 1010.4 0.0
24/08:00pm 25.9 29.6 22.2 80 2.5 ENE 6 7 3 4 1010.0 1009.9 0.0
24/07:30pm 26.4 30.0 22.3 78 2.8 ENE 7 9 4 5 1009.7 1009.6 0.0
24/07:00pm 26.9 30.7 22.7 78 2.8 ENE 7 9 4 5 1009.4 1009.3 0.0
24/06:30pm 27.7 31.7 23.1 76 3.1 ENE 7 11 4 6 1008.9 1008.8 0.0
24/06:00pm 29.0 32.2 23.0 70 4.1 ENE 11 17 6 9 1008.7 1008.6 0.0
24/05:30pm 29.8 32.8 23.3 68 4.5 NE 13 17 7 9 1008.4 1008.3 0.0
24/05:00pm 30.6 33.7 23.5 66 4.9 ENE 13 19 7 10 1008.1 1008.0 0.0
24/04:30pm 30.9 32.9 22.2 59 5.9 ENE 15 22 8 12 1007.8 1007.7 0.0
24/04:00pm 31.6 33.8 22.6 59 6.2 ENE 15 20 8 11 1007.7 1007.6 0.0
24/03:30pm 31.7 34.5 23.0 60 6.0 ENE 13 19 7 10 1008.0 1007.9 0.0
24/03:00pm 32.0 35.4 24.1 63 5.5 ENE 13 20 7 11 1008.1 1008.0 0.0
24/02:30pm 32.0 35.4 24.1 63 5.5 E 13 19 7 10 1008.4 1008.3 0.0
24/02:00pm 32.1 36.4 24.2 63 5.5 NE 9 15 5 8 1008.7 1008.6 0.0
24/01:30pm 31.6 35.7 24.5 66 5.0 ENE 11 17 6 9 1009.0 1008.9 0.0
24/01:00pm 30.9 34.8 24.3 68 4.6 E 11 15 6 8 1009.3 1009.2 0.0
24/12:30pm 31.6 35.1 24.2 65 5.2 E 13 19 7 10 1009.8 1009.7 0.0
24/12:00pm 31.2 35.1 24.3 66 4.8 E 11 19 6 10 1010.2 1010.1 0.0
24/11:30am 31.6 35.3 24.5 66 5.0 E 13 20 7 11 1010.7 1010.6 0.0
24/11:00am 30.5 33.8 23.9 68 4.6 E 13 19 7 10 1010.9 1010.8 0.0
24/10:30am 30.7 34.0 23.9 67 4.7 E 13 22 7 12 1011.2 1011.1 0.0
24/10:00am 30.0 32.9 23.9 70 4.2 ESE 15 22 8 12 1011.5 1011.4 0.0
24/09:30am 29.1 31.7 23.3 71 4.0 ESE 15 22 8 12 1011.5 1011.4 0.0
24/09:00am 28.4 31.8 24.0 77 3.0 ESE 13 19 7 10 1011.2 1011.1 0.0
24/08:30am 26.9 32.2 26.4 97 0.4 SSE 11 19 6 10 1011.1 1011.0 0.0
24/08:00am 26.6 33.0 26.6 100 0.0 SSE 6 9 3 5 1010.8 1010.7 0.0
24/07:30am 25.0 30.7 25.0 100 0.0 ESE 4 6 2 3 1010.5 1010.4 0.0
24/07:00am 24.1 28.9 24.1 100 0.0 ESE 6 6 3 3 1010.2 1010.1 0.0
24/06:30am 24.2 29.0 24.2 100 0.0 ESE 6 6 3 3 1010.0 1009.9 0.0
24/06:00am 24.2 29.4 24.2 100 0.0 E 4 6 2 3 1009.8 1009.7 0.0
24/05:30am 24.4 29.3 24.4 100 0.0 E 6 6 3 3 1009.7 1009.6 0.0
24/05:00am 24.4 29.3 24.4 100 0.0 E 6 7 3 4 1009.5 1009.4 0.0
24/04:30am 24.3 29.0 24.3 100 0.0 E 7 7 4 4 1009.4 1009.3 0.0
24/04:00am 24.5 30.6 24.5 100 0.0 CALM 0 0 0 0 1009.4 1009.3 0.0
24/03:30am 23.9 29.7 23.9 100 0.0 CALM 0 0 0 0 1009.5 1009.4 0.0
24/03:00am 23.9 29.7 23.9 100 0.0 CALM 0 0 0 0 1009.6 1009.5 0.0
24/02:30am 24.0 29.8 24.0 100 0.0 CALM 0 0 0 0 1009.7 1009.6 0.0
24/02:00am 24.0 29.8 24.0 100 0.0 CALM 0 0 0 0 1009.8 1009.7 0.0
24/01:30am 23.9 29.6 23.7 99 0.1 CALM 0 0 0 0 1010.0 1009.9 0.0
24/01:00am 24.0 29.6 23.5 97 0.3 CALM 0 0 0 0 1010.1 1010.0 0.0
24/12:30am 24.1 29.1 23.2 95 0.6 ENE 2 2 1 1 1010.3 1010.2 0.0
24/12:00am 24.3 29.4 23.3 94 0.7 NE 2 4 1 2 1010.2 1010.1 0.0
 
Date/Time
CST
Temp
°C
App
Temp
°C
Dew
Point
Rel
Hum
%
Delta-T
°C
Wind Press
QNH
hPa
Press
MSL
hPa
Rain
since 9 am
mm
Dir
 
Spd
km/h
Gust
km/h
Spd
kts
Gust
kts
23/11:30pm 24.6 29.3 23.4 93 0.8 ENE 4 6 2 3 1010.4 1010.3 0.0
23/11:00pm 25.1 29.9 23.5 91 1.1 NE 4 6 2 3 1010.6 1010.5 0.0
23/10:30pm 25.6 30.2 23.8 90 1.2 NE 6 7 3 4 1010.6 1010.5 0.0
23/10:00pm 25.7 30.2 23.9 90 1.2 ENE 7 11 4 6 1010.6 1010.5 0.0
23/09:30pm 25.5 30.0 23.7 90 1.2 ENE 6 7 3 4 1010.7 1010.6 0.0
23/09:00pm 25.7 30.0 23.7 89 1.4 ENE 7 7 4 4 1010.4 1010.3 0.0
23/08:30pm 25.9 30.5 23.8 88 1.4 ENE 6 7 3 4 1010.4 1010.3 0.0
23/08:00pm 25.9 30.8 23.6 87 1.6 ENE 4 6 2 3 1010.2 1010.1 0.0
23/07:30pm 26.1 30.7 23.2 84 2.0 ESE 4 6 2 3 1009.6 1009.5 0.0
23/07:00pm 26.9 31.8 23.6 82 2.3 ENE 4 4 2 2 1009.5 1009.4 0.0
23/06:30pm 27.6 31.7 23.0 76 3.1 E 6 9 3 5 1009.5 1009.4 0.0
23/06:00pm 28.9 32.5 23.1 71 4.0 E 9 13 5 7 1009.3 1009.2 0.0
23/05:30pm 29.3 32.5 23.0 69 4.3 E 11 17 6 9 1009.0 1008.9 0.0
23/05:00pm 29.8 31.8 23.0 67 4.7 E 17 22 9 12 1008.7 1008.6 0.0
23/04:30pm 30.2 32.3 23.1 65 4.9 ENE 17 22 9 12 1008.3 1008.2 0.0
23/04:00pm 31.1 33.6 23.2 63 5.4 ENE 15 22 8 12 1008.1 1008.0 0.0
23/03:30pm 31.3 34.0 23.4 63 5.5 ENE 15 24 8 13 1008.2 1008.1 0.0
23/03:00pm 31.3 33.8 23.1 61 5.6 ENE 15 22 8 12 1008.4 1008.3 0.0
23/02:30pm 32.0 35.1 23.5 60 5.9 E 13 24 7 13 1008.8 1008.7 0.0
23/02:00pm 31.9 34.4 23.2 60 6.0 E 15 26 8 14 1008.9 1008.8 0.0
23/01:30pm 31.6 34.1 23.2 61 5.8 E 15 22 8 12 1009.2 1009.1 0.0
23/01:00pm 31.6 33.9 23.4 61 5.7 E 17 24 9 13 1009.6 1009.5 0.0
23/12:30pm 31.5 33.5 23.6 63 5.5 ENE 19 26 10 14 1009.9 1009.8 0.0

Other Formats:

Comma delimited format used in spreadsheet applications
http://www.bom.gov.au/fwo/IDD60801/IDD60801.94108.axf

JavaScript Object Notation format (JSON) in row-major order
http://www.bom.gov.au/fwo/IDD60801/IDD60801.94108.json